Time;durP1;ratioP1;P1;durP2;ratioP2;P2;SDS_P1;SDS_P2;PMS_P1;PMS_P2;Temp;Humidity;BMP_temperature;BMP_pressure;BME280_temperature;BME280_humidity;BME280_pressure;Samples;Min_cycle;Max_cycle;Signal;HPM_P1;HPM_P2
2022/07/11 00:00:47;;;;;;;60.88;40.22;;;26.80;99.90;;;;;;5052575;28;20032;-65
2022/07/11 00:03:14;;;;;;;52.35;37.25;;;26.80;99.90;;;;;;5053859;28;20032;-65
2022/07/11 00:05:40;;;;;;;69.15;39.15;;;26.80;99.90;;;;;;5044799;28;20044;-65
2022/07/11 00:08:07;;;;;;;56.13;36.05;;;26.80;99.90;;;;;;5055758;28;20031;-64
2022/07/11 00:10:34;;;;;;;55.65;37.30;;;26.90;99.90;;;;;;5051822;28;20026;-64
2022/07/11 00:13:00;;;;;;;58.05;37.78;;;27.00;99.90;;;;;;5036223;28;20482;-66
2022/07/11 00:15:27;;;;;;;57.17;38.30;;;27.00;99.90;;;;;;5036354;28;20056;-66
2022/07/11 00:17:53;;;;;;;62.00;38.42;;;27.00;99.90;;;;;;5036175;28;20068;-66
2022/07/11 00:20:20;;;;;;;61.25;39.90;;;27.10;99.90;;;;;;5046326;28;20032;-65
2022/07/11 00:22:47;;;;;;;58.83;41.67;;;26.90;99.90;;;;;;5055877;28;20048;-65
2022/07/11 00:25:13;;;;;;;59.20;43.92;;;26.90;99.90;;;;;;5053345;28;20525;-65
2022/07/11 00:27:40;;;;;;;64.60;43.30;;;26.90;99.90;;;;;;5036305;28;20108;-65
2022/07/11 00:30:07;;;;;;;70.72;44.35;;;27.00;99.90;;;;;;5035910;28;20125;-65
2022/07/11 00:32:34;;;;;;;64.65;42.03;;;27.00;99.90;;;;;;5035724;28;20559;-73
2022/07/11 00:35:01;;;;;;;204.00;152.95;;;27.10;99.90;;;;;;5035792;28;20389;-70
2022/07/11 00:37:28;;;;;;;122.72;83.13;;;27.20;99.90;;;;;;5036140;28;20028;-71
2022/07/11 00:39:54;;;;;;;74.57;51.55;;;27.30;99.90;;;;;;5035815;28;20079;-70
2022/07/11 00:42:21;;;;;;;68.90;47.40;;;27.30;99.90;;;;;;5035856;28;20064;-69
2022/07/11 00:44:47;;;;;;;67.05;49.95;;;27.30;99.90;;;;;;5035753;28;20045;-70
2022/07/11 00:47:14;;;;;;;73.85;51.40;;;27.30;99.90;;;;;;5035748;28;20386;-70
2022/07/11 00:49:40;;;;;;;72.45;49.63;;;27.40;99.90;;;;;;5035646;28;20117;-70
2022/07/11 00:52:08;;;;;;;90.13;58.95;;;27.30;99.90;;;;;;5035594;28;20425;-70
2022/07/11 00:54:35;;;;;;;89.18;54.63;;;27.30;99.90;;;;;;5035614;28;20496;-70
2022/07/11 00:57:03;;;;;;;71.82;47.90;;;27.50;99.90;;;;;;5035343;28;20037;-69
2022/07/11 00:59:30;;;;;;;83.50;50.10;;;27.50;99.90;;;;;;5035624;28;20035;-70
2022/07/11 01:01:57;;;;;;;70.15;47.80;;;27.60;99.90;;;;;;5035737;28;20471;-70
2022/07/11 01:04:23;;;;;;;69.40;45.38;;;27.60;99.90;;;;;;5035360;28;20021;-69
2022/07/11 01:06:50;;;;;;;57.42;40.40;;;27.80;99.90;;;;;;5035851;28;20060;-69
2022/07/11 01:09:17;;;;;;;72.22;44.15;;;27.80;99.90;;;;;;5035050;28;20029;-69
2022/07/11 01:11:43;;;;;;;59.83;41.65;;;27.90;99.90;;;;;;5035030;28;20045;-68
2022/07/11 01:14:10;;;;;;;78.53;47.40;;;28.00;99.90;;;;;;5034652;28;20020;-72
2022/07/11 01:16:36;;;;;;;70.15;50.90;;;27.90;99.90;;;;;;5035179;28;20018;-71
2022/07/11 01:19:03;;;;;;;79.53;48.70;;;28.00;99.90;;;;;;5034886;28;20463;-72
2022/07/11 01:21:32;;;;;;;70.68;53.38;;;28.10;99.90;;;;;;5035094;28;20046;-72
2022/07/11 01:24:00;;;;;;;65.13;43.25;;;28.20;99.90;;;;;;5034938;28;20083;-71
2022/07/11 01:26:27;;;;;;;53.78;37.13;;;28.10;99.90;;;;;;5041077;28;20104;-72
2022/07/11 01:28:57;;;;;;;64.53;40.10;;;28.00;99.90;;;;;;5044595;28;20021;-72
2022/07/11 01:31:23;;;;;;;63.42;38.88;;;28.10;99.90;;;;;;5039093;28;20147;-72
2022/07/11 01:33:50;;;;;;;52.25;37.63;;;28.10;99.90;;;;;;5040765;28;20028;-70
2022/07/11 01:36:17;;;;;;;48.92;36.85;;;28.10;99.90;;;;;;5054942;28;20500;-72
2022/07/11 01:38:44;;;;;;;52.33;37.38;;;28.10;99.90;;;;;;5048498;28;20025;-72
2022/07/11 01:41:10;;;;;;;51.40;35.38;;;28.20;99.90;;;;;;5053971;28;20381;-72
2022/07/11 01:43:37;;;;;;;52.75;35.50;;;28.30;99.90;;;;;;5054012;28;20025;-73
2022/07/11 01:46:03;;;;;;;48.20;33.45;;;28.30;99.90;;;;;;5054056;28;20032;-71
2022/07/11 01:48:30;;;;;;;52.88;35.78;;;28.40;99.90;;;;;;5054365;28;20032;-73
2022/07/11 01:50:57;;;;;;;55.05;35.63;;;28.40;99.90;;;;;;5054058;28;20059;-73
2022/07/11 01:53:23;;;;;;;48.75;35.10;;;28.60;99.90;;;;;;5054182;28;20039;-64
2022/07/11 01:55:51;;;;;;;52.00;33.58;;;28.60;99.90;;;;;;5053994;28;20025;-65
2022/07/11 01:58:17;;;;;;;51.25;34.90;;;28.80;99.90;;;;;;5054281;28;20028;-64
2022/07/11 02:00:44;;;;;;;47.88;32.90;;;28.90;99.90;;;;;;5054104;28;20028;-66
2022/07/11 02:03:10;;;;;;;50.35;34.67;;;29.00;99.90;;;;;;5054172;28;20024;-67
2022/07/11 02:05:38;;;;;;;44.67;35.47;;;29.00;99.90;;;;;;5053885;28;20032;-66
2022/07/11 02:08:17;;;;;;;52.85;34.78;;;29.10;99.90;;;;;;5053697;28;20025;-67
2022/07/11 02:10:49;;;;;;;53.65;34.85;;;29.10;99.90;;;;;;5054008;28;20040;-66
2022/07/11 02:13:18;;;;;;;53.72;38.17;;;29.10;99.90;;;;;;5054071;28;20024;-66
2022/07/11 02:15:46;;;;;;;53.90;37.10;;;29.10;99.90;;;;;;5054156;28;20504;-70
2022/07/11 02:18:13;;;;;;;63.80;37.47;;;29.30;99.90;;;;;;5053571;28;20070;-66
2022/07/11 02:20:41;;;;;;;44.97;32.05;;;29.40;99.90;;;;;;5052659;28;20029;-66
2022/07/11 02:23:09;;;;;;;58.10;34.15;;;29.50;99.90;;;;;;5053726;28;20083;-66
2022/07/11 02:25:38;;;;;;;60.47;37.95;;;29.60;99.90;;;;;;5050547;28;20033;-67
2022/07/11 02:28:08;;;;;;;50.90;34.40;;;29.70;99.90;;;;;;5047318;28;20029;-67
2022/07/11 02:30:37;;;;;;;46.40;31.02;;;29.70;99.90;;;;;;5047522;28;20079;-66
2022/07/11 02:33:07;;;;;;;45.80;32.65;;;29.80;99.90;;;;;;5042486;28;20041;-66
2022/07/11 02:35:35;;;;;;;50.75;33.92;;;29.90;99.90;;;;;;5042847;28;20104;-67
2022/07/11 02:38:02;;;;;;;53.22;32.85;;;29.90;99.90;;;;;;5043846;28;20029;-67
2022/07/11 02:40:29;;;;;;;46.70;31.88;;;29.90;99.90;;;;;;5042958;28;20023;-66
2022/07/11 02:42:55;;;;;;;41.38;28.98;;;29.90;99.90;;;;;;5042312;28;20489;-66
2022/07/11 02:45:22;;;;;;;56.70;31.80;;;29.80;99.90;;;;;;5044642;28;20084;-67
2022/07/11 02:47:49;;;;;;;45.78;30.38;;;29.80;99.90;;;;;;5043134;28;20060;-66
2022/07/11 02:50:15;;;;;;;60.70;40.17;;;29.90;99.90;;;;;;5043826;28;20066;-66
2022/07/11 02:52:43;;;;;;;47.95;31.95;;;30.00;99.90;;;;;;5041832;28;20475;-66
2022/07/11 02:55:11;;;;;;;52.20;30.00;;;30.10;99.90;;;;;;5043051;28;20434;-67
2022/07/11 02:57:38;;;;;;;40.40;29.48;;;30.00;99.90;;;;;;5044075;28;20040;-66
2022/07/11 03:00:07;;;;;;;41.35;30.10;;;30.00;99.90;;;;;;5042308;28;20025;-66
2022/07/11 03:02:34;;;;;;;44.53;29.95;;;30.00;99.90;;;;;;5042415;28;20021;-66
2022/07/11 03:05:00;;;;;;;48.92;29.65;;;30.00;99.90;;;;;;5044175;28;20021;-66
2022/07/11 03:07:28;;;;;;;45.05;34.75;;;30.10;99.90;;;;;;5042835;28;20104;-66
2022/07/11 03:09:57;;;;;;;49.53;36.65;;;30.00;99.90;;;;;;5042407;28;20021;-66
2022/07/11 03:12:23;;;;;;;39.47;26.33;;;30.10;99.90;;;;;;5043866;28;20071;-66
2022/07/11 03:14:50;;;;;;;35.65;26.25;;;30.10;99.90;;;;;;5042960;28;20030;-65
2022/07/11 03:17:17;;;;;;;45.55;27.38;;;30.10;99.90;;;;;;5042020;28;20021;-65
2022/07/11 03:19:44;;;;;;;36.00;24.83;;;30.10;99.90;;;;;;5041022;28;20036;-65
2022/07/11 03:22:11;;;;;;;24.55;19.88;;;30.10;99.90;;;;;;5048217;28;20049;-65
2022/07/11 03:24:38;;;;;;;26.58;18.45;;;30.10;99.90;;;;;;5036278;28;20029;-65
2022/07/11 03:27:05;;;;;;;29.70;21.13;;;30.30;99.90;;;;;;5046560;28;20096;-66
2022/07/11 03:29:31;;;;;;;30.75;18.95;;;30.50;99.90;;;;;;5041438;28;20036;-66
2022/07/11 03:31:58;;;;;;;27.63;19.55;;;30.70;99.90;;;;;;5035306;28;20029;-65
2022/07/11 03:34:24;;;;;;;28.15;19.17;;;30.80;99.90;;;;;;5049275;28;20074;-73
2022/07/11 03:36:51;;;;;;;35.42;19.85;;;30.90;99.90;;;;;;5033995;28;20018;-66
2022/07/11 03:39:18;;;;;;;31.08;21.90;;;30.90;99.90;;;;;;5036592;28;20025;-66
2022/07/11 03:41:44;;;;;;;38.63;23.55;;;31.00;99.90;;;;;;5036793;28;20037;-65
2022/07/11 03:44:11;;;;;;;32.15;21.42;;;31.10;99.90;;;;;;5036575;28;20025;-69
2022/07/11 03:46:37;;;;;;;31.35;21.63;;;31.00;99.90;;;;;;5035508;28;20038;-71
2022/07/11 03:49:04;;;;;;;34.08;25.13;;;30.90;99.90;;;;;;5035734;28;20025;-69
2022/07/11 03:51:30;;;;;;;32.55;23.73;;;30.80;99.90;;;;;;5034653;28;20132;-70
2022/07/11 03:53:57;;;;;;;27.05;18.77;;;30.90;99.90;;;;;;5035077;28;20393;-64
2022/07/11 03:56:24;;;;;;;32.00;20.10;;;30.80;99.90;;;;;;5035687;28;20029;-67
2022/07/11 03:58:50;;;;;;;37.25;21.45;;;30.90;99.90;;;;;;5035737;28;20056;-67
2022/07/11 04:01:17;;;;;;;31.00;20.67;;;30.90;99.90;;;;;;5036027;28;20033;-67
2022/07/11 04:03:43;;;;;;;34.25;21.05;;;31.00;99.90;;;;;;5038252;28;20032;-70
2022/07/11 04:06:10;;;;;;;37.15;23.95;;;31.00;99.90;;;;;;5047586;28;20029;-71
2022/07/11 04:08:37;;;;;;;31.15;22.83;;;31.20;99.90;;;;;;5056012;28;20040;-65
2022/07/11 04:11:04;;;;;;;35.90;22.80;;;31.20;99.90;;;;;;5056275;28;20021;-65
2022/07/11 04:13:30;;;;;;;30.60;19.77;;;31.20;99.90;;;;;;5056061;28;20021;-65
2022/07/11 04:15:57;;;;;;;31.35;19.88;;;31.20;99.90;;;;;;5056077;28;20032;-65
2022/07/11 04:18:24;;;;;;;33.05;22.52;;;31.10;99.90;;;;;;5055991;28;20083;-65
2022/07/11 04:20:50;;;;;;;35.75;24.65;;;31.00;99.90;;;;;;5055916;28;20032;-65
2022/07/11 04:23:17;;;;;;;36.60;22.67;;;31.10;99.90;;;;;;5055673;28;20053;-66
2022/07/11 04:25:44;;;;;;;24.65;17.67;;;31.20;99.90;;;;;;5055782;28;20029;-68
2022/07/11 04:28:10;;;;;;;43.95;29.70;;;31.30;99.90;;;;;;5055556;28;20063;-70
2022/07/11 04:30:37;;;;;;;25.33;18.48;;;31.20;99.90;;;;;;5055889;28;20450;-70
2022/07/11 04:33:04;;;;;;;26.27;17.08;;;31.20;99.90;;;;;;5055836;28;20484;-74
2022/07/11 04:35:31;;;;;;;38.60;21.42;;;31.20;99.90;;;;;;5049216;28;20395;-70
2022/07/11 04:37:57;;;;;;;28.08;18.35;;;31.40;99.90;;;;;;5053945;28;20060;-67
2022/07/11 04:40:24;;;;;;;26.25;17.40;;;31.50;99.90;;;;;;5049179;28;20432;-67
2022/07/11 04:42:52;;;;;;;25.85;17.27;;;31.60;99.90;;;;;;5038815;28;20394;-68
2022/07/11 04:45:20;;;;;;;23.30;15.60;;;31.50;99.90;;;;;;5035674;28;20034;-68
2022/07/11 04:47:47;;;;;;;28.98;17.08;;;31.40;99.90;;;;;;5035135;28;20034;-68
2022/07/11 04:50:13;;;;;;;22.25;16.33;;;31.30;99.90;;;;;;5034895;28;20021;-70
2022/07/11 04:52:42;;;;;;;23.98;13.98;;;31.30;99.90;;;;;;5035235;28;20025;-68
2022/07/11 04:55:09;;;;;;;23.20;14.02;;;31.20;99.90;;;;;;5035460;28;20028;-68
2022/07/11 04:57:35;;;;;;;30.42;18.77;;;31.20;99.90;;;;;;5035500;28;20028;-66
2022/07/11 05:00:03;;;;;;;163.95;132.40;;;31.30;99.90;;;;;;5035186;28;20037;-66
2022/07/11 05:02:30;;;;;;;49.05;34.95;;;31.30;99.90;;;;;;5035259;28;20398;-66
2022/07/11 05:04:56;;;;;;;27.30;14.02;;;31.30;99.90;;;;;;5035190;28;20056;-66
2022/07/11 05:07:23;;;;;;;17.83;12.13;;;31.30;99.90;;;;;;5035728;28;20359;-67
2022/07/11 05:09:50;;;;;;;17.60;11.57;;;31.20;99.90;;;;;;5035266;28;20025;-65
2022/07/11 05:12:16;;;;;;;22.27;11.02;;;31.20;99.90;;;;;;5035030;28;20056;-67
2022/07/11 05:14:43;;;;;;;15.13;10.25;;;31.20;99.90;;;;;;5035536;28;20030;-66
2022/07/11 05:17:09;;;;;;;17.63;9.90;;;31.30;99.90;;;;;;5035271;28;20466;-66
2022/07/11 05:19:36;;;;;;;16.83;10.13;;;31.40;99.90;;;;;;5034935;28;20029;-67
2022/07/11 05:22:02;;;;;;;13.45;10.05;;;31.50;99.90;;;;;;5034849;28;20494;-66
2022/07/11 05:24:29;;;;;;;20.23;10.85;;;31.60;99.90;;;;;;5035099;28;20034;-64
2022/07/11 05:26:56;;;;;;;26.92;17.60;;;31.70;99.90;;;;;;5035079;28;20021;-66
2022/07/11 05:29:22;;;;;;;26.02;14.98;;;31.70;99.90;;;;;;5034506;28;20033;-65
2022/07/11 05:31:50;;;;;;;28.63;19.27;;;31.80;99.90;;;;;;5034426;28;20026;-66
2022/07/11 05:34:17;;;;;;;19.63;11.93;;;31.90;99.90;;;;;;5034519;28;20056;-64
2022/07/11 05:36:44;;;;;;;17.92;10.75;;;31.90;99.90;;;;;;5034561;28;20017;-66
2022/07/11 05:39:10;;;;;;;23.15;11.93;;;31.90;99.90;;;;;;5035062;28;20041;-65
2022/07/11 05:41:37;;;;;;;28.48;13.77;;;31.80;99.90;;;;;;5044654;28;20021;-66
2022/07/11 05:44:04;;;;;;;21.65;12.20;;;31.80;99.90;;;;;;5034649;28;20100;-64
2022/07/11 05:46:30;;;;;;;71.63;49.80;;;31.70;99.90;;;;;;5034441;28;20083;-66
2022/07/11 05:48:57;;;;;;;93.57;62.05;;;31.60;99.90;;;;;;5034336;28;20037;-67
2022/07/11 05:51:24;;;;;;;21.25;14.45;;;31.70;99.90;;;;;;5034605;28;20021;-66
2022/07/11 05:53:51;;;;;;;23.27;11.93;;;31.70;99.90;;;;;;5033700;28;20025;-64
2022/07/11 05:56:17;;;;;;;18.15;10.32;;;31.70;99.90;;;;;;5040710;28;20040;-66
2022/07/11 05:58:45;;;;;;;19.65;11.68;;;31.60;99.90;;;;;;5038568;28;20053;-64
2022/07/11 06:01:11;;;;;;;20.08;11.82;;;31.60;99.90;;;;;;5033982;28;20036;-64
2022/07/11 06:03:38;;;;;;;40.13;23.70;;;31.50;99.90;;;;;;5034315;28;20037;-64
2022/07/11 06:06:06;;;;;;;44.70;24.98;;;31.30;99.90;;;;;;5034281;28;20061;-66
2022/07/11 06:08:42;;;;;;;56.95;37.70;;;31.10;99.90;;;;;;5034384;28;20029;-66
2022/07/11 06:11:13;;;;;;;39.75;24.05;;;31.00;99.30;;;;;;5044072;28;20025;-66
2022/07/11 06:13:41;;;;;;;57.17;38.45;;;30.70;99.20;;;;;;5033962;28;20029;-66
2022/07/11 06:16:09;;;;;;;51.50;28.30;;;30.60;99.80;;;;;;5035250;28;20117;-65
2022/07/11 06:18:36;;;;;;;41.85;24.55;;;30.60;99.70;;;;;;5035014;28;20033;-65
2022/07/11 06:21:03;;;;;;;40.55;20.23;;;30.40;97.90;;;;;;5034666;28;20495;-66
2022/07/11 06:23:30;;;;;;;30.02;17.52;;;30.40;98.60;;;;;;5032932;28;20029;-65
2022/07/11 06:25:57;;;;;;;94.07;64.57;;;30.30;99.10;;;;;;5033829;28;20458;-65
2022/07/11 06:28:24;;;;;;;69.18;45.05;;;30.20;99.90;;;;;;5034667;28;20037;-65
2022/07/11 06:30:53;;;;;;;29.58;21.33;;;30.20;99.90;;;;;;5033971;28;20136;-65
2022/07/11 06:33:21;;;;;;;37.08;27.20;;;30.10;99.90;;;;;;5034416;28;20033;-65
2022/07/11 06:35:49;;;;;;;47.42;35.92;;;30.20;99.90;;;;;;5034257;28;20026;-66
2022/07/11 06:38:16;;;;;;;18.45;13.20;;;30.20;99.90;;;;;;5039380;28;20041;-66
2022/07/11 06:40:44;;;;;;;21.38;13.30;;;30.30;99.90;;;;;;5041494;28;20041;-66
2022/07/11 06:43:10;;;;;;;19.88;13.18;;;30.40;99.90;;;;;;5034203;28;20036;-65
2022/07/11 06:45:38;;;;;;;19.75;12.40;;;30.50;99.90;;;;;;5034036;28;20033;-65
2022/07/11 06:48:05;;;;;;;19.05;11.82;;;30.60;99.90;;;;;;5033469;28;20029;-65
2022/07/11 06:50:32;;;;;;;17.40;10.73;;;30.60;99.80;;;;;;5034054;28;20036;-66
2022/07/11 06:52:59;;;;;;;18.67;10.82;;;30.60;99.90;;;;;;5033417;28;20082;-66
2022/07/11 06:55:26;;;;;;;16.38;10.80;;;30.70;99.60;;;;;;5034198;28;20024;-66
2022/07/11 06:57:52;;;;;;;17.60;10.00;;;30.80;99.70;;;;;;5034477;28;20071;-66
2022/07/11 07:00:19;;;;;;;20.30;11.07;;;30.80;99.50;;;;;;5034463;28;20036;-64
2022/07/11 07:02:46;;;;;;;19.20;11.45;;;31.00;99.30;;;;;;5034330;28;20025;-66
2022/07/11 07:05:12;;;;;;;20.58;11.73;;;31.20;99.30;;;;;;5033992;28;20059;-67
2022/07/11 07:07:39;;;;;;;21.25;17.58;;;31.40;98.50;;;;;;5034270;28;20025;-64
2022/07/11 07:10:07;;;;;;;17.95;12.27;;;31.60;98.10;;;;;;5034262;28;20029;-64
2022/07/11 07:12:37;;;;;;;29.00;21.27;;;31.70;97.10;;;;;;5035610;28;20045;-66
2022/07/11 07:15:04;;;;;;;16.13;10.73;;;31.80;97.10;;;;;;5037709;28;20083;-65
2022/07/11 07:17:31;;;;;;;16.45;9.68;;;31.80;96.80;;;;;;5037180;28;20104;-66
2022/07/11 07:19:58;;;;;;;19.73;10.10;;;31.70;96.80;;;;;;5045247;28;20553;-66
2022/07/11 07:22:25;;;;;;;14.10;9.25;;;31.70;97.00;;;;;;5047603;28;20460;-65
2022/07/11 07:24:51;;;;;;;12.98;9.75;;;31.70;96.40;;;;;;5046318;28;20029;-65
2022/07/11 07:27:18;;;;;;;11.95;8.40;;;31.80;96.20;;;;;;5048165;28;20036;-66
2022/07/11 07:29:44;;;;;;;23.42;12.52;;;31.80;96.00;;;;;;5047845;28;20049;-66
2022/07/11 07:32:11;;;;;;;20.67;11.63;;;31.80;94.50;;;;;;5046545;28;20108;-65
2022/07/11 07:34:38;;;;;;;10.57;7.97;;;32.00;95.00;;;;;;5048098;28;20100;-65
2022/07/11 07:37:04;;;;;;;10.18;6.65;;;32.00;93.60;;;;;;5047287;28;20048;-65
2022/07/11 07:39:31;;;;;;;9.30;6.85;;;32.10;93.70;;;;;;5046446;28;20021;-65
2022/07/11 07:41:57;;;;;;;13.82;7.53;;;32.20;94.40;;;;;;5046459;28;20028;-65
2022/07/11 07:44:24;;;;;;;10.90;7.82;;;32.30;93.60;;;;;;5046715;28;20024;-66
2022/07/11 07:46:50;;;;;;;13.05;7.50;;;32.40;93.40;;;;;;5048013;28;20034;-65
2022/07/11 07:49:17;;;;;;;11.85;7.10;;;32.40;92.90;;;;;;5045971;28;20040;-66
2022/07/11 07:51:43;;;;;;;13.23;7.72;;;32.40;93.70;;;;;;5046121;28;20405;-67
2022/07/11 07:54:10;;;;;;;12.02;6.88;;;32.50;94.00;;;;;;5045268;28;20067;-67
2022/07/11 07:56:37;;;;;;;12.68;6.78;;;32.60;92.80;;;;;;5056343;28;20547;-67
2022/07/11 07:59:03;;;;;;;13.77;8.48;;;32.70;92.70;;;;;;5056106;28;20029;-67
2022/07/11 08:01:41;;;;;;;11.20;6.78;;;32.70;92.30;;;;;;5056219;28;20477;-67
2022/07/11 08:04:09;;;;;;;9.35;7.40;;;32.80;92.10;;;;;;5056139;28;20072;-67
2022/07/11 08:06:36;;;;;;;8.73;6.90;;;32.80;92.00;;;;;;5055916;28;20029;-67
2022/07/11 08:09:04;;;;;;;10.88;6.90;;;32.90;91.90;;;;;;5055869;28;20062;-67
2022/07/11 08:11:32;;;;;;;14.20;8.10;;;33.10;92.30;;;;;;5056225;28;20381;-66
2022/07/11 08:13:59;;;;;;;11.25;7.38;;;33.20;91.80;;;;;;5056889;28;20025;-67
2022/07/11 08:16:28;;;;;;;11.52;7.10;;;33.30;91.00;;;;;;5056185;28;20302;-67
2022/07/11 08:18:56;;;;;;;8.95;6.80;;;33.10;91.50;;;;;;5055745;28;20436;-67
2022/07/11 08:21:22;;;;;;;11.30;8.32;;;33.10;91.40;;;;;;5055601;28;20151;-67
2022/07/11 08:23:49;;;;;;;11.98;9.52;;;33.20;90.70;;;;;;5054474;28;20424;-67
2022/07/11 08:26:15;;;;;;;12.75;7.53;;;33.20;91.00;;;;;;5055650;28;20025;-67
2022/07/11 08:28:42;;;;;;;9.10;7.50;;;33.20;90.70;;;;;;5055619;28;20107;-67
2022/07/11 08:31:09;;;;;;;16.27;7.85;;;33.00;90.80;;;;;;5055860;28;20024;-67
2022/07/11 08:33:36;;;;;;;10.75;7.32;;;32.90;91.20;;;;;;5055510;28;20035;-67
2022/07/11 08:36:02;;;;;;;16.50;7.25;;;32.70;90.90;;;;;;5055743;28;20104;-67
2022/07/11 08:38:29;;;;;;;15.68;8.63;;;32.60;90.00;;;;;;5055807;28;20036;-67
2022/07/11 08:40:55;;;;;;;18.48;9.23;;;32.50;90.10;;;;;;5055556;28;20104;-67
2022/07/11 08:43:31;;;;;;;16.35;10.27;;;32.20;90.70;;;;;;5055343;28;20036;-68
2022/07/11 08:45:58;;;;;;;15.30;9.88;;;32.20;91.70;;;;;;5055745;28;20033;-67
2022/07/11 08:48:25;;;;;;;16.70;8.63;;;32.20;92.40;;;;;;5055746;28;20033;-67
2022/07/11 08:50:52;;;;;;;17.63;10.75;;;32.40;92.30;;;;;;5055310;28;20072;-67
2022/07/11 08:53:19;;;;;;;13.63;8.95;;;32.40;91.90;;;;;;5055286;28;20426;-66
2022/07/11 08:55:46;;;;;;;16.55;8.13;;;32.30;91.80;;;;;;5055135;28;20052;-66
2022/07/11 08:58:14;;;;;;;16.73;9.48;;;32.30;91.90;;;;;;5055098;28;20032;-67
2022/07/11 09:00:43;;;;;;;11.48;8.10;;;32.40;91.60;;;;;;5055137;28;20029;-67
2022/07/11 09:03:14;;;;;;;15.57;8.68;;;32.50;91.70;;;;;;5054912;28;20110;-66
2022/07/11 09:05:41;;;;;;;16.17;9.45;;;32.50;92.10;;;;;;5055005;28;20028;-64
2022/07/11 09:08:07;;;;;;;15.48;8.40;;;32.40;92.20;;;;;;5049387;28;20409;-65
2022/07/11 09:10:37;;;;;;;13.45;9.15;;;32.40;92.10;;;;;;5046078;28;20017;-66
2022/07/11 09:13:15;;;;;;;15.90;10.07;;;32.40;92.70;;;;;;5044722;28;20097;-67
2022/07/11 09:15:45;;;;;;;21.05;9.75;;;32.30;92.40;;;;;;5069251;22;20060;-64
2022/07/11 09:18:34;;;;;;;19.05;9.35;;;32.00;92.80;;;;;;5054998;28;20029;-64
2022/07/11 09:26:52;;;;;;;22.27;11.90;;;31.90;92.20;;;;;;5052477;28;20040;-64
2022/07/11 09:29:24;;;;;;;30.45;16.67;;;31.80;93.50;;;;;;5054965;28;20033;-65
2022/07/11 09:31:51;;;;;;;23.77;11.73;;;31.80;94.00;;;;;;5054260;28;20371;-64
2022/07/11 09:34:27;;;;;;;15.52;10.10;;;31.80;94.20;;;;;;5054312;28;20470;-64
2022/07/11 09:36:55;;;;;;;16.50;9.73;;;31.70;94.70;;;;;;5054373;28;20096;-67
2022/07/11 09:39:24;;;;;;;17.35;11.93;;;31.80;95.10;;;;;;5054359;28;20025;-67
2022/07/11 09:41:52;;;;;;;22.88;13.63;;;31.80;95.30;;;;;;5054458;28;20021;-67
2022/07/11 09:44:22;;;;;;;24.58;13.48;;;31.70;95.50;;;;;;5054105;28;20039;-66
2022/07/11 09:46:51;;;;;;;37.92;23.90;;;31.70;95.70;;;;;;5054758;28;20040;-67
2022/07/11 09:49:31;;;;;;;23.90;11.13;;;31.80;95.60;;;;;;5054298;28;20055;-66
2022/07/11 09:52:17;;;;;;;28.90;17.48;;;31.70;94.50;;;;;;5054819;28;20032;-68
2022/07/11 09:54:54;;;;;;;20.35;12.85;;;31.70;94.80;;;;;;5053999;28;20056;-66
2022/07/11 09:57:30;;;;;;;23.70;17.25;;;31.70;94.00;;;;;;5054079;28;20100;-67
2022/07/11 09:59:57;;;;;;;21.42;16.02;;;31.60;94.00;;;;;;5053998;28;20025;-67
2022/07/11 10:02:24;;;;;;;28.63;17.40;;;31.60;94.10;;;;;;5053964;28;20478;-67
2022/07/11 10:04:52;;;;;;;26.77;16.50;;;31.50;94.70;;;;;;5048320;28;20120;-67
2022/07/11 10:07:18;;;;;;;22.35;13.23;;;31.50;94.50;;;;;;5039934;28;20478;-68
2022/07/11 10:09:45;;;;;;;29.85;18.00;;;31.40;94.90;;;;;;5034277;28;20613;-67
2022/07/11 10:12:12;;;;;;;23.45;16.98;;;31.30;94.80;;;;;;5033705;28;20032;-67
2022/07/11 10:14:40;;;;;;;44.25;33.97;;;31.40;94.60;;;;;;5033742;28;20072;-66
2022/07/11 10:17:23;;;;;;;107.45;74.55;;;31.30;94.20;;;;;;5033728;28;20021;-67
2022/07/11 10:20:10;;;;;;;172.77;130.95;;;31.20;94.20;;;;;;5033788;28;20035;-67
2022/07/11 10:23:03;;;;;;;206.95;149.23;;;31.20;94.20;;;;;;5034186;28;20025;-67
2022/07/11 10:25:43;;;;;;;146.25;96.55;;;31.10;94.50;;;;;;5033773;28;20018;-67
2022/07/11 10:28:17;;;;;;;159.52;108.85;;;31.10;95.00;;;;;;5033969;28;20498;-68
2022/07/11 10:30:48;;;;;;;79.18;48.90;;;31.20;94.80;;;;;;5033473;28;20026;-67
2022/07/11 10:33:16;;;;;;;56.65;31.05;;;31.20;94.80;;;;;;5033784;28;20017;-67
2022/07/11 10:35:49;;;;;;;48.65;26.90;;;31.10;95.10;;;;;;5039770;28;20043;-67
2022/07/11 10:38:17;;;;;;;81.40;49.92;;;31.00;95.30;;;;;;5038457;28;20096;-66
2022/07/11 10:40:56;;;;;;;102.28;59.15;;;31.00;95.70;;;;;;5033947;28;20030;-67
2022/07/11 10:43:23;;;;;;;77.20;47.10;;;31.00;95.70;;;;;;5033813;28;20084;-67
2022/07/11 10:45:56;;;;;;;78.35;42.20;;;31.00;95.90;;;;;;5044830;28;20033;-67
2022/07/11 10:48:24;;;;;;;46.35;27.95;;;31.00;96.20;;;;;;5035596;28;20021;-70
2022/07/11 10:51:08;;;;;;;41.88;24.98;;;30.90;96.60;;;;;;5033909;28;20044;-65
2022/07/11 10:53:45;;;;;;;88.38;43.63;;;30.90;97.30;;;;;;5033674;28;20042;-66
2022/07/11 10:56:25;;;;;;;44.42;27.52;;;30.90;97.30;;;;;;5042197;28;20543;-65
2022/07/11 10:59:19;;;;;;;55.85;34.00;;;30.80;97.60;;;;;;5042173;28;20371;-65
2022/07/11 11:02:07;;;;;;;49.35;27.83;;;30.80;98.10;;;;;;5041362;28;20048;-66
2022/07/11 11:07:32;;;;;;;54.70;29.25;;;30.70;98.30;;;;;;4979187;28;20546;-67
2022/07/11 11:10:00;;;;;;;54.40;30.38;;;30.70;98.60;;;;;;4981376;28;20038;-68
2022/07/11 11:13:06;;;;;;;46.03;28.48;;;30.70;99.00;;;;;;4983105;28;20533;-65
2022/07/11 11:15:43;;;;;;;50.28;28.95;;;30.60;99.20;;;;;;4982498;28;20057;-67
2022/07/11 11:18:34;;;;;;;35.83;20.10;;;30.50;99.40;;;;;;4984139;28;20101;-65
2022/07/11 11:21:01;;;;;;;31.58;19.55;;;30.50;99.60;;;;;;4983550;28;20023;-66
2022/07/11 11:23:39;;;;;;;32.60;20.27;;;30.40;99.80;;;;;;4983046;28;20046;-66
2022/07/11 11:26:06;;;;;;;39.30;21.67;;;30.40;99.90;;;;;;4981046;28;20081;-67
2022/07/11 11:28:32;;;;;;;32.47;20.55;;;30.50;99.80;;;;;;4981724;28;20038;-65
2022/07/11 11:31:01;;;;;;;33.65;20.50;;;30.40;99.70;;;;;;4982674;28;20131;-64
2022/07/11 11:33:30;;;;;;;39.28;22.73;;;30.40;99.80;;;;;;4983600;28;20033;-70
2022/07/11 11:36:09;;;;;;;30.35;20.55;;;30.40;99.90;;;;;;4991532;28;20034;-65
2022/07/11 11:38:39;;;;;;;28.60;18.48;;;30.30;99.90;;;;;;4991466;28;20081;-67
2022/07/11 11:41:06;;;;;;;36.42;19.58;;;30.30;99.90;;;;;;5009303;28;20045;-69
2022/07/11 11:43:34;;;;;;;32.38;19.63;;;30.30;99.90;;;;;;5052797;28;20513;-70
2022/07/11 11:46:02;;;;;;;26.88;17.33;;;30.20;99.90;;;;;;5052829;28;20040;-69
2022/07/11 11:48:32;;;;;;;31.38;19.48;;;30.10;99.90;;;;;;5052605;28;20028;-69
2022/07/11 11:51:05;;;;;;;32.08;21.58;;;30.20;99.90;;;;;;5050255;28;20017;-67
2022/07/11 11:53:41;;;;;;;28.60;18.75;;;30.10;99.90;;;;;;5041922;28;20022;-67
2022/07/11 11:56:21;;;;;;;29.83;23.05;;;30.10;99.90;;;;;;5041649;28;20104;-66
2022/07/11 11:58:48;;;;;;;38.00;21.55;;;30.10;99.90;;;;;;5041604;28;20099;-66
2022/07/11 12:01:38;;;;;;;34.85;21.20;;;30.10;99.90;;;;;;5046643;28;20465;-66
2022/07/11 12:04:10;;;;;;;31.30;20.23;;;30.00;99.90;;;;;;5042283;28;20034;-66
2022/07/11 12:06:40;;;;;;;28.80;20.55;;;30.00;99.90;;;;;;5043503;28;20075;-67
2022/07/11 12:09:09;;;;;;;28.95;18.33;;;30.00;99.90;;;;;;5045046;28;20025;-67
2022/07/11 12:11:37;;;;;;;32.92;20.40;;;30.00;99.90;;;;;;5043526;28;20028;-66
2022/07/11 12:14:08;;;;;;;44.38;26.17;;;29.90;99.90;;;;;;5043667;28;20037;-67
2022/07/11 12:16:39;;;;;;;37.53;26.30;;;29.90;99.90;;;;;;5048483;28;20027;-67
2022/07/11 12:19:09;;;;;;;46.70;30.13;;;29.80;99.90;;;;;;5055702;28;20021;-67
2022/07/11 12:21:37;;;;;;;31.83;23.25;;;29.90;99.90;;;;;;5055887;28;20401;-67
2022/07/11 12:24:13;;;;;;;35.67;22.63;;;29.90;99.90;;;;;;5055900;28;20082;-68
2022/07/11 12:26:40;;;;;;;25.90;18.55;;;29.80;99.90;;;;;;5055854;28;20029;-68
2022/07/11 12:29:10;;;;;;;29.15;20.08;;;29.70;99.90;;;;;;5049692;28;20017;-66
2022/07/11 12:31:46;;;;;;;31.73;20.50;;;29.70;99.90;;;;;;5044194;28;20026;-67
2022/07/11 12:34:15;;;;;;;31.58;20.90;;;29.70;99.90;;;;;;5044576;28;20112;-66
2022/07/11 12:36:41;;;;;;;37.45;27.40;;;29.70;99.90;;;;;;5045846;28;20025;-68
2022/07/11 12:39:09;;;;;;;47.85;28.02;;;29.70;99.90;;;;;;5046005;28;20037;-68
2022/07/11 12:41:35;;;;;;;35.97;24.60;;;29.70;99.90;;;;;;5044243;28;20044;-68
2022/07/11 12:46:48;;;;;;;40.03;24.05;;;29.60;99.90;;;;;;5044136;28;20029;-68